Terminal Aerodrome Forecast
Issued by NWS

Home | Current Version | Previous Version | Text Only | Print | Product List | Glossary On
Versions: 1 2 3 4 5 6 7 8 9 10 11 12 13 14 15 16 17 18 19 20 21 22
444
FTUS41 KPBZ 242320
TAFAGC
TAF
KAGC 242320Z 2500/2524 18008KT P6SM BKN250
     FM250300 18010KT P6SM BKN060 WS020/20045KT
     FM251100 19012G25KT 3SM -SHRA VCTS BKN045CB
     FM251600 23013G26KT P6SM BKN030=

USA.gov is the U.S. government's official web portal to all federal, state and local government web resources and services.